createdAt,value
2023-04-02T00:00:24.397Z,984.62
2023-04-02T00:00:55.550Z,984.93
2023-04-02T00:01:27.311Z,984.93
2023-04-02T00:01:59.329Z,984.83
2023-04-02T00:02:31.958Z,984.83
2023-04-02T00:03:03.475Z,984.83
2023-04-02T00:03:35.525Z,984.83
2023-04-02T00:03:51.869Z,984.93
2023-04-02T00:04:23.341Z,984.93
2023-04-02T00:04:55.324Z,984.83
2023-04-02T00:05:28.370Z,984.83
2023-04-02T00:05:59.405Z,985.03
2023-04-02T00:06:32.306Z,985.03
2023-04-02T00:07:03.565Z,984.93
2023-04-02T00:07:35.500Z,984.93
2023-04-02T00:07:51.799Z,985.03
2023-04-02T00:08:23.309Z,985.03
2023-04-02T00:08:55.414Z,984.83
2023-04-02T00:09:27.424Z,984.83
2023-04-02T00:09:59.388Z,984.83
2023-04-02T00:10:32.437Z,984.83
2023-04-02T00:11:03.324Z,984.93
2023-04-02T00:11:35.587Z,984.93
2023-04-02T00:11:52.263Z,985.03
2023-04-02T00:12:23.383Z,985.03
2023-04-02T00:12:55.395Z,985.13
2023-04-02T00:13:27.383Z,985.13
2023-04-02T00:13:59.473Z,984.83
2023-04-02T00:14:32.440Z,984.83
2023-04-02T00:15:05.648Z,985.03
2023-04-02T00:15:36.420Z,985.03
2023-04-02T00:16:07.274Z,985.13
2023-04-02T00:16:36.179Z,985.03
2023-04-02T00:16:55.694Z,985.03
2023-04-02T00:17:27.424Z,985.03
2023-04-02T00:17:59.758Z,984.93
2023-04-02T00:18:32.056Z,984.93
2023-04-02T00:19:03.407Z,984.93
2023-04-02T00:19:35.773Z,984.93
2023-04-02T00:19:51.854Z,985.34
2023-04-02T00:20:23.635Z,985.34
2023-04-02T00:20:55.290Z,984.93
2023-04-02T00:21:27.488Z,984.93
2023-04-02T00:21:59.339Z,985.13
2023-04-02T00:22:31.912Z,985.13
2023-04-02T00:23:03.327Z,985.03
2023-04-02T00:23:35.821Z,985.03
2023-04-02T00:23:52.265Z,985.13
2023-04-02T00:24:23.232Z,985.13
2023-04-02T00:24:55.244Z,985.23
2023-04-02T00:25:27.827Z,985.23
2023-04-02T00:25:59.625Z,985.13
2023-04-02T00:26:31.897Z,985.13
2023-04-02T00:27:03.403Z,985.44
2023-04-02T00:27:35.430Z,985.44
2023-04-02T00:27:51.899Z,985.34
2023-04-02T00:28:23.391Z,985.34
2023-04-02T00:28:55.472Z,985.23
2023-04-02T00:29:27.268Z,985.23
2023-04-02T00:29:59.470Z,985.44
2023-04-02T00:30:33.056Z,985.44
2023-04-02T00:31:03.275Z,985.34
2023-04-02T00:31:35.459Z,985.34
2023-04-02T00:31:51.815Z,985.54
2023-04-02T00:32:23.164Z,985.54
2023-04-02T00:32:55.316Z,985.34
2023-04-02T00:33:27.399Z,985.34
2023-04-02T00:33:59.456Z,985.23
2023-04-02T00:34:31.998Z,985.23
2023-04-02T00:35:05.008Z,985.23
2023-04-02T00:35:36.088Z,985.23
2023-04-02T00:36:07.239Z,985.44
2023-04-02T00:36:36.909Z,985.54
2023-04-02T00:36:55.667Z,985.54
2023-04-02T00:37:27.423Z,985.54
2023-04-02T00:37:59.596Z,985.44
2023-04-02T00:38:31.865Z,985.44
2023-04-02T00:39:03.232Z,985.44
2023-04-02T00:39:35.899Z,985.44
2023-04-02T00:40:08.108Z,985.54
2023-04-02T00:40:36.186Z,985.54
2023-04-02T00:40:55.715Z,985.54
2023-04-02T00:41:27.313Z,985.54
2023-04-02T00:41:59.397Z,985.54
2023-04-02T00:42:31.978Z,985.54
2023-04-02T00:43:03.441Z,985.71
2023-04-02T00:43:36.022Z,985.71
2023-04-02T00:44:07.270Z,985.64
2023-04-02T00:44:36.404Z,985.54
2023-04-02T00:44:55.286Z,985.54
2023-04-02T00:45:28.212Z,985.54
2023-04-02T00:45:59.814Z,985.71
2023-04-02T00:46:32.065Z,985.71
2023-04-02T00:47:03.293Z,985.71
2023-04-02T00:47:35.511Z,985.71
2023-04-02T00:47:52.101Z,985.64
2023-04-02T00:48:23.308Z,985.64
2023-04-02T00:48:55.345Z,985.54
2023-04-02T00:49:27.395Z,985.54
2023-04-02T00:49:59.487Z,985.81
2023-04-02T00:50:32.323Z,985.81
2023-04-02T00:51:03.633Z,985.71
2023-04-02T00:51:35.533Z,985.71
2023-04-02T00:51:51.986Z,985.64
2023-04-02T00:52:23.374Z,985.64
2023-04-02T00:52:55.398Z,985.54
2023-04-02T00:53:27.372Z,985.54
2023-04-02T00:53:59.615Z,985.71
2023-04-02T00:54:32.142Z,985.71
2023-04-02T00:55:05.014Z,985.71
2023-04-02T00:55:36.043Z,985.71
2023-04-02T00:55:52.698Z,985.71
2023-04-02T00:56:23.406Z,985.71
2023-04-02T00:56:55.402Z,985.54
2023-04-02T00:57:27.347Z,985.54
2023-04-02T00:57:59.357Z,985.64
2023-04-02T00:58:32.259Z,985.64
2023-04-02T00:59:03.323Z,985.54
2023-04-02T00:59:35.526Z,985.54
2023-04-02T00:59:52.715Z,985.71
2023-04-02T01:00:24.335Z,985.71
2023-04-02T01:00:55.500Z,985.81
2023-04-02T01:01:59.268Z,985.64
2023-04-02T01:02:32.284Z,985.64
2023-04-02T01:03:03.422Z,985.71
2023-04-02T01:03:35.942Z,985.71
2023-04-02T01:03:51.866Z,985.91
2023-04-02T01:04:23.272Z,985.91
2023-04-02T01:04:55.603Z,985.71
2023-04-02T01:05:27.869Z,985.71
2023-04-02T01:05:59.307Z,985.71
2023-04-02T01:06:31.893Z,985.71
2023-04-02T01:07:03.234Z,985.91
2023-04-02T01:07:35.476Z,985.91
2023-04-02T01:07:52.059Z,985.91
2023-04-02T01:08:23.549Z,985.91
2023-04-02T01:08:56.089Z,985.91
2023-04-02T01:09:27.315Z,985.91
2023-04-02T01:09:59.481Z,986.01
2023-04-02T01:10:32.577Z,986.01
2023-04-02T01:11:03.266Z,985.91
2023-04-02T01:11:35.547Z,985.91
2023-04-02T01:11:51.858Z,986.01
2023-04-02T01:12:23.262Z,986.01
2023-04-02T01:12:55.129Z,986.11
2023-04-02T01:13:27.290Z,986.11
2023-04-02T01:13:59.931Z,986.01
2023-04-02T01:14:31.880Z,986.01
2023-04-02T01:15:05.275Z,985.91
2023-04-02T01:15:35.608Z,985.91
2023-04-02T01:15:52.443Z,985.91
2023-04-02T01:16:23.346Z,985.91
2023-04-02T01:16:55.239Z,985.91
2023-04-02T01:17:27.340Z,985.91
2023-04-02T01:18:00.184Z,986.22
2023-04-02T01:18:31.763Z,986.22
2023-04-02T01:19:03.338Z,986.01
2023-04-02T01:19:35.569Z,986.01
2023-04-02T01:19:51.812Z,986.11
2023-04-02T01:20:23.610Z,986.11
2023-04-02T01:20:55.223Z,986.22
2023-04-02T01:21:27.277Z,986.22
2023-04-02T01:21:59.478Z,986.11
2023-04-02T01:22:31.896Z,986.11
2023-04-02T01:23:03.727Z,986.11
2023-04-02T01:23:35.720Z,986.11
2023-04-02T01:24:07.287Z,986.11
2023-04-02T01:24:36.099Z,986.01
2023-04-02T01:24:55.197Z,986.01
2023-04-02T01:25:27.665Z,986.01
2023-04-02T01:25:59.308Z,986.11
2023-04-02T01:26:31.933Z,986.11
2023-04-02T01:27:03.214Z,986.11
2023-04-02T01:27:35.559Z,986.11
2023-04-02T01:27:51.812Z,986.22
2023-04-02T01:28:23.400Z,986.22
2023-04-02T01:28:55.216Z,986.32
2023-04-02T01:29:27.435Z,986.32
2023-04-02T01:29:59.302Z,986.22
2023-04-02T01:30:32.851Z,986.22
2023-04-02T01:31:03.220Z,986.11
2023-04-02T01:31:35.569Z,986.11
2023-04-02T01:31:51.888Z,986.32
2023-04-02T01:32:23.223Z,986.32
2023-04-02T01:32:55.486Z,986.32
2023-04-02T01:33:27.482Z,986.32
2023-04-02T01:33:59.408Z,986.11
2023-04-02T01:34:42.740Z,986.11
2023-04-02T01:35:04.939Z,986.32
2023-04-02T01:35:36.470Z,986.32
2023-04-02T01:36:07.366Z,986.42
2023-04-02T01:36:36.127Z,986.32
2023-04-02T01:36:55.333Z,986.32
2023-04-02T01:37:27.410Z,986.32
2023-04-02T01:37:59.458Z,986.62
2023-04-02T01:38:31.972Z,986.62
2023-04-02T01:39:03.175Z,986.52
2023-04-02T01:39:35.330Z,986.52
2023-04-02T01:39:51.774Z,986.42
2023-04-02T01:40:23.619Z,986.42
2023-04-02T01:40:55.409Z,986.42
2023-04-02T01:41:27.391Z,986.42
2023-04-02T01:41:59.630Z,986.72
2023-04-02T01:42:32.074Z,986.72
2023-04-02T01:43:03.353Z,986.52
2023-04-02T01:43:35.886Z,986.52
2023-04-02T01:44:07.224Z,986.62
2023-04-02T01:44:36.023Z,986.62
2023-04-02T01:44:55.325Z,986.62
2023-04-02T01:45:28.350Z,986.62
2023-04-02T01:45:59.563Z,986.62
2023-04-02T01:46:31.927Z,986.62
2023-04-02T01:47:03.290Z,986.72
2023-04-02T01:47:35.936Z,986.72
2023-04-02T01:48:07.562Z,986.72
2023-04-02T01:48:36.478Z,986.72
2023-04-02T01:48:55.558Z,986.72
2023-04-02T01:49:27.837Z,986.72
2023-04-02T01:49:59.548Z,986.72
2023-04-02T01:50:32.825Z,986.72
2023-04-02T01:51:03.189Z,986.83
2023-04-02T01:51:35.325Z,986.83
2023-04-02T01:51:51.879Z,986.72
2023-04-02T01:52:23.169Z,986.72
2023-04-02T01:52:55.493Z,986.62
2023-04-02T01:53:27.348Z,986.62
2023-04-02T01:53:59.493Z,986.72
2023-04-02T01:54:32.010Z,986.72
2023-04-02T01:55:04.426Z,986.83
2023-04-02T01:55:35.804Z,986.83
2023-04-02T01:55:52.296Z,986.52
2023-04-02T01:56:23.327Z,986.52
2023-04-02T01:56:55.482Z,986.83
2023-04-02T01:57:27.538Z,986.83
2023-04-02T01:57:59.478Z,986.72
2023-04-02T01:58:31.938Z,986.72
2023-04-02T01:59:03.232Z,986.72
2023-04-02T01:59:35.603Z,986.72
2023-04-02T01:59:52.031Z,986.83
2023-04-02T02:00:24.372Z,986.83
2023-04-02T02:00:55.809Z,986.72
2023-04-02T02:01:27.317Z,986.72
2023-04-02T02:01:59.642Z,986.72
2023-04-02T02:02:31.898Z,986.72
2023-04-02T02:03:03.404Z,986.93
2023-04-02T02:03:35.462Z,986.93
2023-04-02T02:03:52.069Z,986.83
2023-04-02T02:04:23.748Z,986.83
2023-04-02T02:04:55.292Z,986.93
2023-04-02T02:05:27.970Z,986.93
2023-04-02T02:05:59.575Z,986.83
2023-04-02T02:06:32.067Z,986.83
2023-04-02T02:07:03.340Z,987.13
2023-04-02T02:07:35.451Z,987.13
2023-04-02T02:07:51.794Z,986.93
2023-04-02T02:08:23.617Z,986.93
2023-04-02T02:08:55.329Z,986.83
2023-04-02T02:09:27.366Z,986.83
2023-04-02T02:09:59.486Z,986.83
2023-04-02T02:10:32.367Z,986.83
2023-04-02T02:11:03.280Z,986.93
2023-04-02T02:11:35.365Z,986.93
2023-04-02T02:11:51.945Z,986.83
2023-04-02T02:12:23.480Z,986.83
2023-04-02T02:12:55.463Z,986.83
2023-04-02T02:13:27.550Z,986.83
2023-04-02T02:13:59.542Z,987.03
2023-04-02T02:14:31.877Z,987.03
2023-04-02T02:15:05.778Z,987.13
2023-04-02T02:15:35.784Z,987.13
2023-04-02T02:15:52.310Z,986.93
2023-04-02T02:16:23.556Z,986.93
2023-04-02T02:16:55.408Z,987.03
2023-04-02T02:17:27.808Z,987.03
2023-04-02T02:17:59.720Z,986.93
2023-04-02T02:18:32.400Z,986.93
2023-04-02T02:19:03.276Z,987.03
2023-04-02T02:19:35.501Z,987.03
2023-04-02T02:19:51.870Z,987.03
2023-04-02T02:20:23.540Z,987.03
2023-04-02T02:20:55.357Z,987.23
2023-04-02T02:21:27.509Z,987.23
2023-04-02T02:21:59.539Z,987.13
2023-04-02T02:22:32.013Z,987.13
2023-04-02T02:23:03.337Z,987.13
2023-04-02T02:23:35.392Z,987.13
2023-04-02T02:23:51.965Z,987.03
2023-04-02T02:24:23.451Z,987.03
2023-04-02T02:24:55.497Z,987.23
2023-04-02T02:25:27.916Z,987.23
2023-04-02T02:25:59.526Z,986.93
2023-04-02T02:26:32.279Z,986.93
2023-04-02T02:27:03.384Z,986.83
2023-04-02T02:27:36.053Z,986.83
2023-04-02T02:28:07.710Z,987.13
2023-04-02T02:28:36.143Z,987.23
2023-04-02T02:28:55.566Z,987.23
2023-04-02T02:29:27.819Z,987.23
2023-04-02T02:30:01.950Z,987.23
2023-04-02T02:30:32.588Z,987.23
2023-04-02T02:31:03.338Z,987.44
2023-04-02T02:31:36.451Z,987.44
2023-04-02T02:32:07.819Z,987.13
2023-04-02T02:32:36.294Z,987.44
2023-04-02T02:32:55.416Z,987.44
2023-04-02T02:33:27.459Z,987.44
2023-04-02T02:33:59.715Z,987.13
2023-04-02T02:34:31.842Z,987.13
2023-04-02T02:35:04.795Z,987.44
2023-04-02T02:35:36.337Z,987.44
2023-04-02T02:35:52.479Z,987.23
2023-04-02T02:36:23.263Z,987.23
2023-04-02T02:36:55.368Z,987.23
2023-04-02T02:37:27.300Z,987.23
2023-04-02T02:37:59.357Z,987.54
2023-04-02T02:38:32.078Z,987.54
2023-04-02T02:39:03.286Z,987.44
2023-04-02T02:39:35.320Z,987.44
2023-04-02T02:39:51.919Z,987.44
2023-04-02T02:40:23.826Z,987.44
2023-04-02T02:40:55.381Z,987.44
2023-04-02T02:41:27.693Z,987.44
2023-04-02T02:41:59.368Z,987.64
2023-04-02T02:42:32.490Z,987.64
2023-04-02T02:43:03.308Z,987.54
2023-04-02T02:43:35.502Z,987.54
2023-04-02T02:43:51.985Z,987.54
2023-04-02T02:44:23.532Z,987.54
2023-04-02T02:44:55.386Z,987.54
2023-04-02T02:45:28.336Z,987.54
2023-04-02T02:45:59.562Z,987.54
2023-04-02T02:46:31.980Z,987.54
2023-04-02T02:47:03.375Z,987.54
2023-04-02T02:47:35.529Z,987.54
2023-04-02T02:47:51.909Z,987.64
2023-04-02T02:48:23.332Z,987.64
2023-04-02T02:48:55.329Z,987.74
2023-04-02T02:49:27.817Z,987.74
2023-04-02T02:49:59.584Z,987.64
2023-04-02T02:50:32.467Z,987.64
2023-04-02T02:51:03.304Z,987.81
2023-04-02T02:51:35.477Z,987.81
2023-04-02T02:51:51.959Z,987.74
2023-04-02T02:52:23.470Z,987.74
2023-04-02T02:52:55.740Z,987.64
2023-04-02T02:53:27.711Z,987.64
2023-04-02T02:53:59.549Z,987.81
2023-04-02T02:54:32.045Z,987.81
2023-04-02T02:55:04.909Z,987.91
2023-04-02T02:55:35.551Z,987.91
2023-04-02T02:55:52.461Z,987.74
2023-04-02T02:56:23.361Z,987.74
2023-04-02T02:56:55.381Z,987.91
2023-04-02T02:57:27.517Z,987.91
2023-04-02T02:57:59.475Z,987.81
2023-04-02T02:58:32.058Z,987.81
2023-04-02T02:59:03.494Z,988.01
2023-04-02T02:59:36.127Z,988.01
2023-04-02T03:00:08.613Z,987.91
2023-04-02T03:00:36.092Z,987.74
2023-04-02T03:00:55.770Z,987.74
2023-04-02T03:01:27.413Z,987.74
2023-04-02T03:01:59.496Z,988.01
2023-04-02T03:02:32.118Z,988.01
2023-04-02T03:03:03.469Z,987.74
2023-04-02T03:03:35.592Z,987.74
2023-04-02T03:03:52.064Z,987.91
2023-04-02T03:04:23.529Z,987.91
2023-04-02T03:04:55.430Z,988.01
2023-04-02T03:05:27.818Z,988.01
2023-04-02T03:05:59.473Z,987.91
2023-04-02T03:06:31.985Z,987.91
2023-04-02T03:07:03.331Z,987.81
2023-04-02T03:07:35.666Z,987.81
2023-04-02T03:07:52.125Z,988.01
2023-04-02T03:08:23.260Z,988.01
2023-04-02T03:08:55.478Z,987.81
2023-04-02T03:09:27.493Z,987.81
2023-04-02T03:09:59.364Z,988.11
2023-04-02T03:10:32.351Z,988.11
2023-04-02T03:11:03.330Z,988.01
2023-04-02T03:11:35.458Z,988.01
2023-04-02T03:11:52.540Z,988.21
2023-04-02T03:12:23.348Z,988.21
2023-04-02T03:12:55.347Z,988.11
2023-04-02T03:13:27.295Z,988.11
2023-04-02T03:13:59.713Z,988.01
2023-04-02T03:14:31.977Z,988.01
2023-04-02T03:15:05.682Z,988.11
2023-04-02T03:15:36.078Z,988.11
2023-04-02T03:16:07.506Z,988.21
2023-04-02T03:16:36.176Z,988.21
2023-04-02T03:16:55.582Z,988.21
2023-04-02T03:17:27.413Z,988.21
2023-04-02T03:17:59.503Z,988.21
2023-04-02T03:18:31.908Z,988.21
2023-04-02T03:19:03.293Z,988.21
2023-04-02T03:19:35.422Z,988.21
2023-04-02T03:19:51.994Z,988.21
2023-04-02T03:20:23.839Z,988.21
2023-04-02T03:20:55.797Z,988.42
2023-04-02T03:21:27.266Z,988.42
2023-04-02T03:21:59.423Z,988.21
2023-04-02T03:22:31.933Z,988.21
2023-04-02T03:23:03.350Z,988.21
2023-04-02T03:23:35.462Z,988.21
2023-04-02T03:23:52.067Z,988.32
2023-04-02T03:24:23.825Z,988.32
2023-04-02T03:24:55.450Z,988.21
2023-04-02T03:25:28.099Z,988.21
2023-04-02T03:26:00.055Z,988.32
2023-04-02T03:26:32.033Z,988.32
2023-04-02T03:27:03.403Z,988.42
2023-04-02T03:27:35.455Z,988.42
2023-04-02T03:27:52.166Z,988.42
2023-04-02T03:28:23.570Z,988.42
2023-04-02T03:28:55.516Z,988.32
2023-04-02T03:29:27.613Z,988.32
2023-04-02T03:30:01.602Z,988.42
2023-04-02T03:30:33.797Z,988.42
2023-04-02T03:31:03.482Z,988.32
2023-04-02T03:31:35.588Z,988.32
2023-04-02T03:31:52.022Z,988.52
2023-04-02T03:32:23.365Z,988.52
2023-04-02T03:32:55.487Z,988.42
2023-04-02T03:33:27.632Z,988.42
2023-04-02T03:33:59.556Z,988.52
2023-04-02T03:34:32.468Z,988.52
2023-04-02T03:35:05.569Z,988.42
2023-04-02T03:35:35.673Z,988.42
2023-04-02T03:35:52.506Z,988.32
2023-04-02T03:36:23.738Z,988.32
2023-04-02T03:36:55.447Z,988.52
2023-04-02T03:37:27.481Z,988.52
2023-04-02T03:37:59.505Z,988.62
2023-04-02T03:38:32.053Z,988.62
2023-04-02T03:39:03.280Z,988.52
2023-04-02T03:39:35.439Z,988.52
2023-04-02T03:39:51.985Z,988.52
2023-04-02T03:40:23.886Z,988.52
2023-04-02T03:40:55.483Z,988.72
2023-04-02T03:41:27.512Z,988.72
2023-04-02T03:41:59.594Z,988.62
2023-04-02T03:42:32.098Z,988.62
2023-04-02T03:43:03.421Z,988.82
2023-04-02T03:43:35.449Z,988.82
2023-04-02T03:43:51.996Z,988.82
2023-04-02T03:44:23.280Z,988.82
2023-04-02T03:44:55.793Z,988.72
2023-04-02T03:45:28.404Z,988.72
2023-04-02T03:45:59.830Z,988.72
2023-04-02T03:46:32.137Z,988.72
2023-04-02T03:47:03.435Z,988.42
2023-04-02T03:47:35.535Z,988.42
2023-04-02T03:47:52.041Z,988.93
2023-04-02T03:48:23.408Z,988.93
2023-04-02T03:48:55.673Z,988.62
2023-04-02T03:49:27.527Z,988.62
2023-04-02T03:49:59.569Z,989.03
2023-04-02T03:50:32.519Z,989.03
2023-04-02T03:51:03.327Z,988.62
2023-04-02T03:51:35.485Z,988.62
2023-04-02T03:51:52.026Z,988.93
2023-04-02T03:52:23.506Z,988.93
2023-04-02T03:52:55.561Z,988.82
2023-04-02T03:53:27.676Z,988.82
2023-04-02T03:53:59.576Z,988.93
2023-04-02T03:54:32.164Z,988.93
2023-04-02T03:55:04.836Z,988.93
2023-04-02T03:55:35.619Z,988.93
2023-04-02T03:55:52.412Z,989.03
2023-04-02T03:56:23.361Z,989.03
2023-04-02T03:56:55.515Z,989.03
2023-04-02T03:57:27.639Z,989.03
2023-04-02T03:57:59.351Z,988.93
2023-04-02T03:58:31.972Z,988.93
2023-04-02T03:59:03.261Z,988.93
2023-04-02T03:59:35.771Z,988.93
2023-04-02T04:00:08.617Z,989.03
2023-04-02T04:00:36.205Z,988.82
2023-04-02T04:00:56.034Z,988.82
2023-04-02T04:01:27.349Z,988.82
2023-04-02T04:01:59.526Z,989.03
2023-04-02T04:02:32.030Z,989.03
2023-04-02T04:03:03.418Z,989.23
2023-04-02T04:03:35.533Z,989.23
2023-04-02T04:03:52.061Z,989.23
2023-04-02T04:04:23.598Z,989.23
2023-04-02T04:04:55.466Z,988.93
2023-04-02T04:05:27.953Z,988.93
2023-04-02T04:05:59.538Z,989.23
2023-04-02T04:06:32.087Z,989.23
2023-04-02T04:07:03.385Z,989.13
2023-04-02T04:07:35.502Z,989.13
2023-04-02T04:07:52.066Z,989.23
2023-04-02T04:08:23.358Z,989.23
2023-04-02T04:08:55.490Z,989.13
2023-04-02T04:09:27.536Z,989.13
2023-04-02T04:09:59.520Z,989.33
2023-04-02T04:10:32.412Z,989.33
2023-04-02T04:11:03.499Z,989.23
2023-04-02T04:11:36.371Z,989.23
2023-04-02T04:12:07.731Z,989.33
2023-04-02T04:12:36.154Z,989.23
2023-04-02T04:12:55.495Z,989.23
2023-04-02T04:13:27.490Z,989.23
2023-04-02T04:13:59.575Z,989.33
2023-04-02T04:14:32.055Z,989.33
2023-04-02T04:15:05.607Z,989.43
2023-04-02T04:15:35.602Z,989.43
2023-04-02T04:15:52.389Z,989.43
2023-04-02T04:16:23.662Z,989.43
2023-04-02T04:16:55.745Z,989.43
2023-04-02T04:17:27.446Z,989.43
2023-04-02T04:17:59.558Z,989.43
2023-04-02T04:18:31.914Z,989.43
2023-04-02T04:19:03.392Z,989.43
2023-04-02T04:19:35.409Z,989.43
2023-04-02T04:19:51.868Z,989.43
2023-04-02T04:20:24.330Z,989.43
2023-04-02T04:20:55.475Z,989.64
2023-04-02T04:21:27.459Z,989.64
2023-04-02T04:21:59.484Z,989.53
2023-04-02T04:22:31.904Z,989.53
2023-04-02T04:23:03.385Z,989.43
2023-04-02T04:23:35.389Z,989.43
2023-04-02T04:23:51.895Z,989.53
2023-04-02T04:24:23.290Z,989.53
2023-04-02T04:24:55.405Z,989.64
2023-04-02T04:25:28.159Z,989.64
2023-04-02T04:25:59.585Z,989.53
2023-04-02T04:26:32.221Z,989.53
2023-04-02T04:27:03.531Z,989.64
2023-04-02T04:27:35.413Z,989.64
2023-04-02T04:27:52.009Z,989.33
2023-04-02T04:28:23.210Z,989.33
2023-04-02T04:28:55.471Z,989.64
2023-04-02T04:29:27.747Z,989.64
2023-04-02T04:29:59.426Z,989.53
2023-04-02T04:30:32.705Z,989.53
2023-04-02T04:31:04.512Z,989.53
2023-04-02T04:31:35.430Z,989.53
2023-04-02T04:31:51.992Z,989.84
2023-04-02T04:32:23.265Z,989.84
2023-04-02T04:32:55.537Z,989.91
2023-04-02T04:33:27.489Z,989.91
2023-04-02T04:33:59.641Z,989.64
2023-04-02T04:34:31.995Z,989.64
2023-04-02T04:35:04.817Z,989.74
2023-04-02T04:35:35.623Z,989.74
2023-04-02T04:35:52.416Z,989.84
2023-04-02T04:36:23.365Z,989.84
2023-04-02T04:36:55.796Z,990.01
2023-04-02T04:37:27.433Z,990.01
2023-04-02T04:37:59.580Z,989.84
2023-04-02T04:38:32.384Z,989.84
2023-04-02T04:39:03.325Z,989.91
2023-04-02T04:39:36.000Z,989.91
2023-04-02T04:40:08.252Z,989.91
2023-04-02T04:40:36.136Z,990.01
2023-04-02T04:40:55.922Z,990.01
2023-04-02T04:41:27.556Z,990.01
2023-04-02T04:41:59.526Z,989.91
2023-04-02T04:42:32.484Z,989.91
2023-04-02T04:43:03.423Z,989.84
2023-04-02T04:43:35.622Z,989.84
2023-04-02T04:43:52.029Z,989.91
2023-04-02T04:44:23.324Z,989.91
2023-04-02T04:44:55.505Z,989.91
2023-04-02T04:45:28.718Z,989.91
2023-04-02T04:45:59.977Z,990.01
2023-04-02T04:46:32.119Z,990.01
2023-04-02T04:47:03.621Z,990.21
2023-04-02T04:47:36.057Z,990.21
2023-04-02T04:47:51.978Z,990.21
2023-04-02T04:48:23.269Z,990.21
2023-04-02T04:48:55.462Z,990.01
2023-04-02T04:49:27.403Z,990.01
2023-04-02T04:49:59.510Z,990.21
2023-04-02T04:50:32.434Z,990.21
2023-04-02T04:51:03.467Z,990.11
2023-04-02T04:51:35.403Z,990.11
2023-04-02T04:51:51.976Z,990.11
2023-04-02T04:52:23.304Z,990.11
2023-04-02T04:52:55.536Z,990.11
2023-04-02T04:53:27.627Z,990.11
2023-04-02T04:53:59.612Z,990.42
2023-04-02T04:54:31.986Z,990.42
2023-04-02T04:55:05.135Z,990.21
2023-04-02T04:55:35.771Z,990.21
2023-04-02T04:55:52.303Z,990.31
2023-04-02T04:56:24.042Z,990.31
2023-04-02T04:56:55.562Z,990.31
2023-04-02T04:57:27.632Z,990.31
2023-04-02T04:58:00.174Z,990.31
2023-04-02T04:58:32.029Z,990.31
2023-04-02T04:59:03.614Z,990.31
2023-04-02T04:59:35.518Z,990.31
2023-04-02T04:59:52.145Z,990.31
2023-04-02T05:00:24.403Z,990.31
2023-04-02T05:00:55.834Z,990.52
2023-04-02T05:01:27.662Z,990.52
2023-04-02T05:01:59.511Z,990.31
2023-04-02T05:02:32.058Z,990.31
2023-04-02T05:03:03.794Z,990.52
2023-04-02T05:03:35.386Z,990.52
2023-04-02T05:03:52.228Z,990.52
2023-04-02T05:04:23.685Z,990.52
2023-04-02T05:04:55.882Z,990.62
2023-04-02T05:05:28.137Z,990.62
2023-04-02T05:05:59.768Z,990.62
2023-04-02T05:06:32.237Z,990.62
2023-04-02T05:07:03.502Z,990.72
2023-04-02T05:07:35.699Z,990.72
2023-04-02T05:07:52.124Z,990.62
2023-04-02T05:08:23.538Z,990.62
2023-04-02T05:08:55.689Z,990.72
2023-04-02T05:09:27.657Z,990.72
2023-04-02T05:09:59.835Z,990.52
2023-04-02T05:10:32.533Z,990.52
2023-04-02T05:11:03.801Z,990.62
2023-04-02T05:11:35.606Z,990.62
2023-04-02T05:11:52.146Z,990.42
2023-04-02T05:12:23.768Z,990.42
2023-04-02T05:12:55.737Z,990.82
2023-04-02T05:13:27.712Z,990.82
2023-04-02T05:13:59.936Z,990.62
2023-04-02T05:14:32.258Z,990.62
2023-04-02T05:15:05.786Z,990.72
2023-04-02T05:15:36.178Z,990.72
2023-04-02T05:15:52.844Z,990.92
2023-04-02T05:16:23.598Z,990.92
2023-04-02T05:16:55.816Z,990.62
2023-04-02T05:17:27.712Z,990.62
2023-04-02T05:17:59.791Z,990.72
2023-04-02T05:18:32.690Z,990.72
2023-04-02T05:19:03.652Z,990.72
2023-04-02T05:19:35.703Z,990.72
2023-04-02T05:19:52.467Z,990.62
2023-04-02T05:20:24.003Z,990.62
2023-04-02T05:20:55.857Z,990.92
2023-04-02T05:21:27.830Z,990.92
2023-04-02T05:22:00.032Z,990.72
2023-04-02T05:22:32.267Z,990.72
2023-04-02T05:23:03.777Z,990.82
2023-04-02T05:23:35.696Z,990.82
2023-04-02T05:23:52.721Z,990.92
2023-04-02T05:24:23.800Z,990.92
2023-04-02T05:24:55.755Z,990.92
2023-04-02T05:25:28.037Z,990.92
2023-04-02T05:25:59.885Z,990.92
2023-04-02T05:26:32.317Z,990.92
2023-04-02T05:27:03.718Z,991.02
2023-04-02T05:27:35.791Z,991.02
2023-04-02T05:27:52.328Z,991.02
2023-04-02T05:28:23.587Z,991.02
2023-04-02T05:28:56.559Z,991.02
2023-04-02T05:29:27.957Z,991.02
2023-04-02T05:29:59.733Z,991.02
2023-04-02T05:30:33.198Z,991.02
2023-04-02T05:31:03.621Z,991.23
2023-04-02T05:31:36.799Z,991.23
2023-04-02T05:31:52.565Z,991.33
2023-04-02T05:32:23.680Z,991.33
2023-04-02T05:32:56.456Z,991.02
2023-04-02T05:33:27.671Z,991.02
2023-04-02T05:34:00.008Z,991.43
2023-04-02T05:34:32.290Z,991.43
2023-04-02T05:35:05.240Z,991.13
2023-04-02T05:35:36.051Z,991.13
2023-04-02T05:35:52.622Z,991.13
2023-04-02T05:36:23.762Z,991.13
2023-04-02T05:36:55.786Z,991.13
2023-04-02T05:37:27.897Z,991.13
2023-04-02T05:38:00.216Z,991.23
2023-04-02T05:38:32.183Z,991.23
2023-04-02T05:39:03.666Z,991.23
2023-04-02T05:39:35.704Z,991.23
2023-04-02T05:39:52.122Z,991.02
2023-04-02T05:40:24.000Z,991.02
2023-04-02T05:40:55.841Z,991.23
2023-04-02T05:41:27.786Z,991.23
2023-04-02T05:42:01.166Z,990.92
2023-04-02T05:42:32.268Z,990.92
2023-04-02T05:43:03.922Z,991.13
2023-04-02T05:43:35.850Z,991.13
2023-04-02T05:43:52.326Z,991.33
2023-04-02T05:44:23.714Z,991.33
2023-04-02T05:44:55.951Z,991.23
2023-04-02T05:45:28.682Z,991.23
2023-04-02T05:46:00.301Z,991.33
2023-04-02T05:46:32.325Z,991.33
2023-04-02T05:47:04.469Z,991.13
2023-04-02T05:47:35.903Z,991.13
2023-04-02T05:47:52.345Z,991.13
2023-04-02T05:48:23.742Z,991.13
2023-04-02T05:48:55.935Z,991.33
2023-04-02T05:49:28.322Z,991.33
2023-04-02T05:50:00.007Z,991.23
2023-04-02T05:50:33.134Z,991.23
2023-04-02T05:51:03.881Z,991.23
2023-04-02T05:51:36.555Z,991.23
2023-04-02T05:51:52.296Z,991.33
2023-04-02T05:52:24.243Z,991.33
2023-04-02T05:52:55.907Z,991.43
2023-04-02T05:53:27.978Z,991.43
2023-04-02T05:53:59.912Z,991.43
2023-04-02T05:54:32.371Z,991.43
2023-04-02T05:55:05.329Z,991.63
2023-04-02T05:55:36.463Z,991.63
2023-04-02T05:56:07.921Z,991.33
2023-04-02T05:56:36.454Z,991.63
2023-04-02T05:56:56.239Z,991.63
2023-04-02T05:57:42.819Z,991.63
2023-04-02T05:58:17.704Z,991.53
2023-04-02T05:58:36.169Z,991.53
2023-04-02T05:59:03.814Z,991.43
2023-04-02T05:59:35.920Z,991.43
2023-04-02T05:59:52.374Z,991.43
2023-04-02T06:00:24.855Z,991.43
2023-04-02T06:00:55.776Z,991.53
2023-04-02T06:01:27.654Z,991.53
2023-04-02T06:01:59.992Z,991.63
2023-04-02T06:02:32.333Z,991.63
2023-04-02T06:03:03.790Z,991.53
2023-04-02T06:03:35.853Z,991.53
2023-04-02T06:03:52.373Z,991.53
2023-04-02T06:04:23.888Z,991.53
2023-04-02T06:04:56.149Z,991.53
2023-04-02T06:05:28.197Z,991.53
2023-04-02T06:05:59.920Z,991.84
2023-04-02T06:06:32.221Z,991.84
2023-04-02T06:07:03.794Z,991.63
2023-04-02T06:07:35.972Z,991.63
2023-04-02T06:07:52.394Z,991.53
2023-04-02T06:08:23.655Z,991.53
2023-04-02T06:08:55.878Z,991.43
2023-04-02T06:09:29.084Z,991.43
2023-04-02T06:10:00.017Z,991.84
2023-04-02T06:10:32.851Z,991.84
2023-04-02T06:11:03.701Z,991.84
2023-04-02T06:11:35.808Z,991.84
2023-04-02T06:11:52.500Z,991.63
2023-04-02T06:12:23.824Z,991.63
2023-04-02T06:12:56.139Z,991.94
2023-04-02T06:13:27.971Z,991.94
2023-04-02T06:14:00.100Z,991.84
2023-04-02T06:14:32.403Z,991.84
2023-04-02T06:15:06.711Z,991.94